createdAt,value
2023-03-10T00:01:35.188Z,996.78
2023-03-10T00:06:35.353Z,996.69
2023-03-10T00:11:34.561Z,996.57
2023-03-10T00:16:35.653Z,996.50
2023-03-10T00:21:36.994Z,996.37
2023-03-10T00:26:38.167Z,996.29
2023-03-10T00:31:40.342Z,996.09
2023-03-10T00:36:39.535Z,995.98
2023-03-10T00:41:41.665Z,995.84
2023-03-10T00:46:40.905Z,995.76
2023-03-10T00:51:42.093Z,995.78
2023-03-10T00:56:43.192Z,995.62
2023-03-10T01:01:44.416Z,995.56
2023-03-10T01:06:45.585Z,995.57
2023-03-10T01:11:46.723Z,995.49
2023-03-10T01:16:48.870Z,995.27
2023-03-10T01:21:48.037Z,995.19
2023-03-10T01:26:52.191Z,995.16
2023-03-10T01:31:50.409Z,995.00
2023-03-10T01:36:50.525Z,994.91
2023-03-10T01:41:49.640Z,994.86
2023-03-10T01:46:50.882Z,994.75
2023-03-10T01:51:52.027Z,994.66
2023-03-10T01:56:53.131Z,994.62
2023-03-10T02:01:54.339Z,994.72
2023-03-10T02:06:55.471Z,994.74
2023-03-10T02:11:56.579Z,994.81
2023-03-10T02:16:56.692Z,995.02
2023-03-10T02:21:57.835Z,995.40
2023-03-10T02:26:58.955Z,995.43
2023-03-10T02:32:00.227Z,995.58
2023-03-10T02:37:04.394Z,995.60
2023-03-10T02:42:02.505Z,995.52
2023-03-10T02:47:01.611Z,995.52
2023-03-10T02:52:03.758Z,995.43
2023-03-10T02:57:02.874Z,995.32
2023-03-10T03:02:04.042Z,995.61
2023-03-10T03:07:05.170Z,995.30
2023-03-10T03:12:06.296Z,995.39
2023-03-10T03:17:07.448Z,995.50
2023-03-10T03:22:08.566Z,995.48
2023-03-10T03:27:09.700Z,995.32
2023-03-10T03:32:10.934Z,995.24
2023-03-10T03:37:12.134Z,995.31
2023-03-10T03:42:13.288Z,995.19
2023-03-10T03:47:15.476Z,995.39
2023-03-10T03:52:14.610Z,995.54
2023-03-10T03:57:16.893Z,995.42
2023-03-10T04:02:16.053Z,995.61
2023-03-10T04:07:17.339Z,995.47
2023-03-10T04:12:19.449Z,995.44
2023-03-10T04:17:23.885Z,995.29
2023-03-10T04:22:18.996Z,995.22
2023-03-10T04:27:21.144Z,995.24
2023-03-10T04:32:20.277Z,995.19
2023-03-10T04:37:21.374Z,995.07
2023-03-10T04:42:22.530Z,994.92
2023-03-10T04:47:23.692Z,994.97
2023-03-10T04:52:25.828Z,994.81
2023-03-10T04:57:27.037Z,994.81
2023-03-10T05:02:26.166Z,994.66
2023-03-10T05:07:29.353Z,994.55
2023-03-10T05:12:29.448Z,994.49
2023-03-10T05:17:28.903Z,994.24
2023-03-10T05:22:29.040Z,994.14
2023-03-10T05:27:28.165Z,994.24
2023-03-10T05:32:30.345Z,994.25
2023-03-10T05:37:29.488Z,994.36
2023-03-10T05:42:30.623Z,994.20
2023-03-10T05:47:31.753Z,994.14
2023-03-10T05:52:34.954Z,993.88
2023-03-10T05:57:35.114Z,993.87
2023-03-10T06:02:34.226Z,993.73
2023-03-10T06:07:36.395Z,993.67
2023-03-10T06:12:35.617Z,993.62
2023-03-10T06:17:36.785Z,993.64
2023-03-10T06:22:37.005Z,993.55
2023-03-10T06:27:38.251Z,993.37
2023-03-10T06:32:39.416Z,993.45
2023-03-10T06:37:42.571Z,993.26
2023-03-10T06:42:42.796Z,993.33
2023-03-10T06:47:41.928Z,993.34
2023-03-10T06:52:45.342Z,993.07
2023-03-10T06:57:44.485Z,993.12
2023-03-10T07:02:45.624Z,992.99
2023-03-10T07:07:47.857Z,993.01
2023-03-10T07:12:47.022Z,992.76
2023-03-10T07:17:49.221Z,992.85
2023-03-10T07:22:48.350Z,992.66
2023-03-10T07:27:49.470Z,992.69
2023-03-10T07:32:50.622Z,992.95
2023-03-10T07:37:52.791Z,993.08
2023-03-10T07:42:52.882Z,993.34
2023-03-10T07:47:53.002Z,993.37
2023-03-10T07:52:53.129Z,993.47
2023-03-10T07:57:53.312Z,993.77
2023-03-10T08:02:52.428Z,994.10
2023-03-10T08:07:53.560Z,994.13
2023-03-10T08:12:54.678Z,994.11
2023-03-10T08:17:56.083Z,994.52
2023-03-10T08:22:57.213Z,994.74
2023-03-10T08:27:58.308Z,994.89
2023-03-10T08:33:00.527Z,994.40
2023-03-10T08:37:59.645Z,994.32
2023-03-10T08:43:00.882Z,994.97
2023-03-10T08:48:03.164Z,995.99
2023-03-10T08:53:02.252Z,996.26
2023-03-10T08:58:04.384Z,996.11
2023-03-10T09:03:03.566Z,996.10
2023-03-10T09:08:04.720Z,996.17
2023-03-10T09:13:13.775Z,996.18
2023-03-10T09:18:06.868Z,995.99
2023-03-10T09:23:06.050Z,995.84
2023-03-10T09:28:07.173Z,995.99
2023-03-10T09:33:09.325Z,995.95
2023-03-10T09:38:07.466Z,995.80
2023-03-10T09:43:08.600Z,995.82
2023-03-10T09:48:09.707Z,995.67
2023-03-10T09:53:11.806Z,995.92
2023-03-10T09:58:10.990Z,995.85
2023-03-10T10:03:12.148Z,995.68
2023-03-10T10:08:13.292Z,995.56
2023-03-10T10:13:14.439Z,995.56
2023-03-10T10:18:20.929Z,995.39
2023-03-10T10:23:15.472Z,995.24
2023-03-10T10:28:17.596Z,995.16
2023-03-10T10:33:15.716Z,994.98
2023-03-10T10:38:18.824Z,995.14
2023-03-10T10:43:16.958Z,995.04
2023-03-10T10:48:18.123Z,994.98
2023-03-10T10:53:20.239Z,994.89
2023-03-10T10:58:19.396Z,994.82
2023-03-10T11:03:20.494Z,994.86
2023-03-10T11:08:22.622Z,994.95
2023-03-10T11:13:21.723Z,994.89
2023-03-10T11:18:22.862Z,994.86
2023-03-10T11:23:23.963Z,994.90
2023-03-10T11:28:26.075Z,995.15
2023-03-10T11:33:26.165Z,995.24
2023-03-10T11:38:25.273Z,995.59
2023-03-10T11:43:26.372Z,995.84
2023-03-10T11:48:29.482Z,996.02
2023-03-10T11:53:28.573Z,996.28
2023-03-10T11:58:30.695Z,996.20
2023-03-10T12:03:30.846Z,996.02
2023-03-10T12:08:30.993Z,996.09
2023-03-10T12:13:30.130Z,996.07
2023-03-10T12:18:31.246Z,996.15
2023-03-10T12:23:33.366Z,996.11
2023-03-10T12:28:31.505Z,996.16
2023-03-10T12:33:33.650Z,996.28
2023-03-10T12:38:32.799Z,996.18
2023-03-10T12:43:35.935Z,996.16
2023-03-10T12:48:35.049Z,995.89
2023-03-10T12:53:36.137Z,996.10
2023-03-10T12:58:37.334Z,996.07
2023-03-10T13:03:38.488Z,996.13
2023-03-10T13:08:38.618Z,996.47
2023-03-10T13:13:39.701Z,996.53
2023-03-10T13:18:41.812Z,996.61
2023-03-10T13:23:42.260Z,996.38
2023-03-10T13:28:42.684Z,996.49
2023-03-10T13:33:52.339Z,996.37
2023-03-10T13:38:41.776Z,996.29
2023-03-10T13:43:44.876Z,996.52
2023-03-10T13:48:44.018Z,996.57
2023-03-10T13:53:46.127Z,996.71
2023-03-10T13:58:50.140Z,996.77
2023-03-10T14:03:46.307Z,996.74
2023-03-10T14:08:45.449Z,996.60
2023-03-10T14:13:46.564Z,996.65
2023-03-10T14:18:48.722Z,996.79
2023-03-10T14:23:47.897Z,996.63
2023-03-10T14:28:48.048Z,996.71
2023-03-10T14:33:49.210Z,996.98
2023-03-10T14:38:50.458Z,996.67
2023-03-10T14:43:51.680Z,996.59
2023-03-10T14:48:52.935Z,996.66
2023-03-10T14:53:55.365Z,997.38
2023-03-10T14:58:55.521Z,996.75
2023-03-10T15:03:55.681Z,996.73
2023-03-10T15:08:55.845Z,996.67
2023-03-10T15:13:54.988Z,996.94
2023-03-10T15:18:56.098Z,996.89
2023-03-10T15:23:57.450Z,996.63
2023-03-10T15:28:58.615Z,997.48
2023-03-10T15:33:59.848Z,997.10
2023-03-10T15:39:01.013Z,997.62
2023-03-10T15:44:02.301Z,997.96
2023-03-10T15:49:05.482Z,998.52
2023-03-10T15:54:04.619Z,998.52
2023-03-10T15:59:05.879Z,998.60
2023-03-10T16:04:07.083Z,998.44
2023-03-10T16:09:09.273Z,998.82
2023-03-10T16:14:09.376Z,998.89
2023-03-10T16:19:09.516Z,998.90
2023-03-10T16:24:13.632Z,999.08
2023-03-10T16:29:08.741Z,999.21
2023-03-10T16:34:09.915Z,999.56
2023-03-10T16:39:12.021Z,999.23
2023-03-10T16:44:12.262Z,999.04
2023-03-10T16:49:11.605Z,999.12
2023-03-10T16:54:13.082Z,999.16
2023-03-10T16:59:12.370Z,998.97
2023-03-10T17:04:13.665Z,999.07
2023-03-10T17:09:14.862Z,999.01
2023-03-10T17:14:17.298Z,998.87
2023-03-10T17:19:17.532Z,998.93
2023-03-10T17:24:17.740Z,999.25
2023-03-10T17:29:17.900Z,999.07
2023-03-10T17:34:17.141Z,999.42
2023-03-10T17:39:18.582Z,999.46
2023-03-10T17:44:17.978Z,999.26
2023-03-10T17:49:19.426Z,999.18
2023-03-10T17:54:19.947Z,999.20
2023-03-10T17:59:20.432Z,999.46
2023-03-10T18:04:19.890Z,999.29
2023-03-10T18:09:19.213Z,999.64
2023-03-10T18:14:20.423Z,999.44
2023-03-10T18:19:21.905Z,999.96
2023-03-10T18:24:21.415Z,1000.08
2023-03-10T18:29:22.672Z,999.91
2023-03-10T18:34:24.232Z,999.93
2023-03-10T18:39:23.763Z,999.74
2023-03-10T18:44:23.136Z,999.55
2023-03-10T18:49:24.330Z,999.45
2023-03-10T18:54:25.728Z,999.51
2023-03-10T18:59:25.255Z,999.48
2023-03-10T19:04:24.759Z,999.62
2023-03-10T19:09:25.302Z,999.84
2023-03-10T19:14:26.992Z,999.90
2023-03-10T19:19:23.237Z,1000.28
2023-03-10T19:24:24.497Z,1000.22
2023-03-10T19:29:25.881Z,1000.35
2023-03-10T19:34:24.447Z,1000.37
2023-03-10T19:39:26.007Z,1000.28
2023-03-10T19:44:26.706Z,1000.30
2023-03-10T19:49:26.381Z,1000.41
2023-03-10T19:54:25.927Z,1000.38
2023-03-10T19:59:25.377Z,1000.58
2023-03-10T20:04:27.041Z,1000.64
2023-03-10T20:09:26.433Z,1001.06
2023-03-10T20:14:27.957Z,1001.41
2023-03-10T20:19:28.477Z,1001.24
2023-03-10T20:24:29.959Z,1001.33
2023-03-10T20:29:27.504Z,1001.50
2023-03-10T20:34:27.886Z,1001.35
2023-03-10T20:39:27.437Z,1001.47
2023-03-10T20:44:26.917Z,1001.62
2023-03-10T20:49:26.845Z,1001.62
2023-03-10T20:54:26.337Z,1001.80
2023-03-10T20:59:25.582Z,1001.90
2023-03-10T21:04:28.042Z,1002.25
2023-03-10T21:09:32.049Z,1002.04
2023-03-10T21:14:28.434Z,1002.12
2023-03-10T21:19:27.632Z,1002.09
2023-03-10T21:24:29.036Z,1002.14
2023-03-10T21:29:28.258Z,1002.08
2023-03-10T21:34:29.462Z,1002.17
2023-03-10T21:39:30.607Z,1002.12
2023-03-10T21:44:31.994Z,1002.12
2023-03-10T21:49:33.719Z,1002.41
2023-03-10T21:54:34.002Z,1002.53
2023-03-10T21:59:33.641Z,1002.96
2023-03-10T22:04:32.883Z,1003.39
2023-03-10T22:09:34.098Z,1003.47
2023-03-10T22:14:35.237Z,1003.68
2023-03-10T22:19:36.406Z,1003.64
2023-03-10T22:24:38.504Z,1003.61
2023-03-10T22:29:38.597Z,1003.68
2023-03-10T22:34:38.800Z,1003.69
2023-03-10T22:39:37.898Z,1003.86
2023-03-10T22:44:39.082Z,1003.74
2023-03-10T22:49:40.660Z,1003.68
2023-03-10T22:54:39.867Z,1003.54
2023-03-10T22:59:40.997Z,1003.47
2023-03-10T23:04:42.152Z,1003.50
2023-03-10T23:09:44.438Z,1003.55
2023-03-10T23:14:45.529Z,1003.61
2023-03-10T23:19:44.734Z,1003.44
2023-03-10T23:24:46.987Z,1003.63
2023-03-10T23:29:47.145Z,1003.99
2023-03-10T23:34:45.339Z,1003.78
2023-03-10T23:39:46.451Z,1003.95
2023-03-10T23:44:47.577Z,1004.07
2023-03-10T23:49:49.713Z,1004.00
2023-03-10T23:54:48.914Z,1003.95
2023-03-10T23:59:50.057Z,1004.00
